createdAt,value
2018-07-17T00:00:28.692Z,76.60
2018-07-17T00:02:57.633Z,77.10
2018-07-17T00:05:26.619Z,79.50
2018-07-17T00:07:55.644Z,80.10
2018-07-17T00:10:24.708Z,75.20
2018-07-17T00:12:53.723Z,82.70
2018-07-17T00:15:22.906Z,82.70
2018-07-17T00:17:52.013Z,81.90
2018-07-17T00:20:21.059Z,79.30
2018-07-17T00:22:50.316Z,79.70
2018-07-17T00:25:19.469Z,81.50
2018-07-17T00:27:48.656Z,82.10
2018-07-17T00:30:17.777Z,80.70
2018-07-17T00:32:46.843Z,80.50
2018-07-17T00:35:15.865Z,80.60
2018-07-17T00:37:44.817Z,79.70
2018-07-17T00:40:13.686Z,79.70
2018-07-17T00:42:42.601Z,79.30
2018-07-17T00:45:11.470Z,78.90
2018-07-17T00:47:40.364Z,78.50
2018-07-17T00:50:09.367Z,78.50
2018-07-17T00:52:38.296Z,78.80
2018-07-17T00:55:07.168Z,78.90
2018-07-17T00:57:36.096Z,79.00
2018-07-17T01:00:05.625Z,78.80
2018-07-17T01:02:39.846Z,79.10
2018-07-17T01:05:13.919Z,79.20
2018-07-17T01:07:48.011Z,79.20
2018-07-17T01:10:22.197Z,79.50
2018-07-17T01:12:50.336Z,79.50
2018-07-17T01:15:50.037Z,79.10
2018-07-17T01:18:19.402Z,78.80
2018-07-17T01:20:48.616Z,78.40
2018-07-17T01:23:17.740Z,79.80
2018-07-17T01:25:46.749Z,79.30
2018-07-17T01:28:15.804Z,78.90
2018-07-17T01:30:44.738Z,78.40
2018-07-17T01:33:13.665Z,78.40
2018-07-17T01:35:42.516Z,82.80
2018-07-17T01:38:11.372Z,82.30
2018-07-17T01:40:40.304Z,83.00
2018-07-17T01:43:09.154Z,82.80
2018-07-17T01:45:38.040Z,82.70
2018-07-17T01:48:07.005Z,80.40
2018-07-17T01:50:35.892Z,80.60
2018-07-17T01:53:04.769Z,83.20
2018-07-17T01:55:33.708Z,81.40
2018-07-17T01:58:02.557Z,81.50
2018-07-17T02:00:31.444Z,80.50
2018-07-17T02:03:00.309Z,80.50
2018-07-17T02:05:29.256Z,80.00
2018-07-17T02:07:58.208Z,87.10
2018-07-17T02:10:27.108Z,86.50
2018-07-17T02:12:56.868Z,83.60
2018-07-17T02:15:25.867Z,81.30
2018-07-17T02:17:54.855Z,87.90
2018-07-17T02:20:23.872Z,86.90
2018-07-17T02:22:52.822Z,85.00
2018-07-17T02:25:21.970Z,83.80
2018-07-17T02:27:51.050Z,84.50
2018-07-17T02:30:20.093Z,83.40
2018-07-17T02:32:49.188Z,85.40
2018-07-17T02:35:18.316Z,90.50
2018-07-17T02:37:47.529Z,92.20
2018-07-17T02:40:16.634Z,92.40
2018-07-17T02:42:45.657Z,93.10
2018-07-17T02:45:14.542Z,91.20
2018-07-17T02:47:43.456Z,92.90
2018-07-17T02:50:12.341Z,92.30
2018-07-17T02:52:41.245Z,91.10
2018-07-17T02:55:10.129Z,93.20
2018-07-17T02:57:39.018Z,94.90
2018-07-17T03:00:07.952Z,93.20
2018-07-17T03:02:36.840Z,92.50
2018-07-17T03:05:05.709Z,91.30
2018-07-17T03:07:34.645Z,90.90
2018-07-17T03:10:03.555Z,90.60
2018-07-17T03:12:32.477Z,91.80
2018-07-17T03:15:01.381Z,92.60
2018-07-17T03:17:30.250Z,94.10
2018-07-17T03:19:59.160Z,95.50
2018-07-17T03:22:28.042Z,98.00
2018-07-17T03:24:57.001Z,97.40
2018-07-17T03:27:25.902Z,97.20
2018-07-17T03:29:54.908Z,96.40
2018-07-17T03:32:23.860Z,94.00
2018-07-17T03:34:52.887Z,91.10
2018-07-17T03:37:21.921Z,95.90
2018-07-17T03:39:51.016Z,99.40
2018-07-17T03:42:19.972Z,97.20
2018-07-17T03:44:49.039Z,97.60
2018-07-17T03:47:18.191Z,93.10
2018-07-17T03:49:47.284Z,95.60
2018-07-17T03:52:16.501Z,92.50
2018-07-17T03:54:45.509Z,95.00
2018-07-17T03:57:14.416Z,94.00
2018-07-17T03:59:43.332Z,95.20
2018-07-17T04:02:12.237Z,91.70
2018-07-17T04:04:41.161Z,93.80
2018-07-17T04:07:10.093Z,93.00
2018-07-17T04:09:39.017Z,91.70
2018-07-17T04:12:07.965Z,90.30
2018-07-17T04:14:36.848Z,94.60
2018-07-17T04:17:05.756Z,93.00
2018-07-17T04:19:34.622Z,93.40
2018-07-17T04:22:03.545Z,91.30
2018-07-17T04:24:32.412Z,94.70
2018-07-17T04:27:01.333Z,92.50
2018-07-17T04:29:30.225Z,93.70
2018-07-17T04:31:59.134Z,92.10
2018-07-17T04:34:27.996Z,91.20
2018-07-17T04:36:56.948Z,92.10
2018-07-17T04:39:25.959Z,91.10
2018-07-17T04:41:55.021Z,91.00
2018-07-17T04:44:24.149Z,90.90
2018-07-17T04:46:53.288Z,90.40
2018-07-17T04:49:22.396Z,90.20
2018-07-17T04:51:51.503Z,90.40
2018-07-17T04:54:20.581Z,90.10
2018-07-17T04:56:49.708Z,91.50
2018-07-17T04:59:18.808Z,90.10
2018-07-17T05:01:48.067Z,93.40
2018-07-17T05:04:17.382Z,91.00
2018-07-17T05:06:47.196Z,90.40
2018-07-17T05:09:16.250Z,87.10
2018-07-17T05:11:45.221Z,83.80
2018-07-17T05:14:14.134Z,81.20
2018-07-17T05:16:43.041Z,82.60
2018-07-17T05:19:12.049Z,81.70
2018-07-17T05:21:41.002Z,80.40
2018-07-17T05:24:09.912Z,85.70
2018-07-17T05:26:39.098Z,81.80
2018-07-17T05:29:08.009Z,78.60
2018-07-17T05:31:37.044Z,77.70
2018-07-17T05:34:06.052Z,74.30
2018-07-17T05:36:34.980Z,76.20
2018-07-17T05:39:04.123Z,75.20
2018-07-17T05:41:32.991Z,73.10
2018-07-17T05:44:01.935Z,71.10
2018-07-17T05:46:30.852Z,75.30
2018-07-17T05:48:59.808Z,75.70
2018-07-17T05:51:28.692Z,75.10
2018-07-17T05:53:57.699Z,71.40
2018-07-17T05:56:26.581Z,70.10
2018-07-17T05:58:55.933Z,70.70
2018-07-17T06:01:24.872Z,71.60
2018-07-17T06:03:54.148Z,69.40
2018-07-17T06:06:23.852Z,70.60
2018-07-17T06:08:52.985Z,70.40
2018-07-17T06:11:22.407Z,69.10
2018-07-17T06:13:51.535Z,69.20
2018-07-17T06:16:20.812Z,68.40
2018-07-17T06:18:50.115Z,68.50
2018-07-17T06:21:19.436Z,65.70
2018-07-17T06:23:49.322Z,65.60
2018-07-17T06:26:18.863Z,61.80
2018-07-17T06:28:48.776Z,63.50
2018-07-17T06:31:18.272Z,64.60
2018-07-17T06:33:47.586Z,70.80
2018-07-17T06:36:16.710Z,75.90
2018-07-17T06:38:45.727Z,70.40
2018-07-17T06:41:14.830Z,70.10
2018-07-17T06:43:43.724Z,72.40
2018-07-17T06:46:12.636Z,64.80
2018-07-17T06:48:41.528Z,59.90
2018-07-17T06:51:10.552Z,62.00
2018-07-17T06:53:39.846Z,65.00
2018-07-17T06:56:08.772Z,69.90
2018-07-17T06:58:37.637Z,65.40
2018-07-17T07:01:06.571Z,69.30
2018-07-17T07:03:35.432Z,73.20
2018-07-17T07:06:04.309Z,76.00
2018-07-17T07:08:33.257Z,78.60
2018-07-17T07:11:02.148Z,78.90
2018-07-17T07:13:31.050Z,84.00
2018-07-17T07:16:00.006Z,80.80
2018-07-17T07:18:29.068Z,81.20
2018-07-17T07:20:58.320Z,82.20
2018-07-17T07:23:27.656Z,86.60
2018-07-17T07:25:56.832Z,80.90
2018-07-17T07:28:25.956Z,82.10
2018-07-17T07:30:55.615Z,83.40
2018-07-17T07:33:25.083Z,81.80
2018-07-17T07:35:54.580Z,79.50
2018-07-17T07:38:23.972Z,80.50
2018-07-17T07:40:53.452Z,79.20
2018-07-17T07:43:22.843Z,82.90
2018-07-17T07:45:52.214Z,81.00
2018-07-17T07:48:21.688Z,82.30
2018-07-17T07:50:50.786Z,81.50
2018-07-17T07:53:19.954Z,81.90
2018-07-17T07:55:49.209Z,81.90
2018-07-17T07:58:18.106Z,80.00
2018-07-17T08:00:47.053Z,79.00
2018-07-17T08:03:15.955Z,76.30
2018-07-17T08:05:45.000Z,73.50
2018-07-17T08:08:14.248Z,75.30
2018-07-17T08:10:43.620Z,83.30
2018-07-17T08:13:12.923Z,81.50
2018-07-17T08:15:42.045Z,75.50
2018-07-17T08:18:11.125Z,75.00
2018-07-17T08:20:40.216Z,80.00
2018-07-17T08:23:09.135Z,71.30
2018-07-17T08:25:38.034Z,65.40
2018-07-17T08:28:06.912Z,70.20
2018-07-17T08:30:35.797Z,73.60
2018-07-17T08:33:04.691Z,66.90
2018-07-17T08:35:33.589Z,65.30
2018-07-17T08:38:02.505Z,73.70
2018-07-17T08:40:31.420Z,67.00
2018-07-17T08:43:00.322Z,63.70
2018-07-17T08:45:29.288Z,60.80
2018-07-17T08:47:58.313Z,61.30
2018-07-17T08:50:27.424Z,60.00
2018-07-17T08:52:56.936Z,58.30
2018-07-17T08:55:26.197Z,60.00
2018-07-17T08:57:55.693Z,59.20
2018-07-17T09:00:25.220Z,59.20
2018-07-17T09:02:54.532Z,57.60
2018-07-17T09:05:23.644Z,55.80
2018-07-17T09:07:52.833Z,54.80
2018-07-17T09:10:22.247Z,56.20
2018-07-17T09:12:51.484Z,56.30
2018-07-17T09:15:20.514Z,61.70
2018-07-17T09:17:49.485Z,60.00
2018-07-17T09:20:18.389Z,57.80
2018-07-17T09:22:47.316Z,56.90
2018-07-17T09:25:16.194Z,58.10
2018-07-17T09:27:45.148Z,56.30
2018-07-17T09:30:14.281Z,57.20
2018-07-17T09:32:43.296Z,55.00
2018-07-17T09:35:12.446Z,52.40
2018-07-17T09:37:41.517Z,53.30
2018-07-17T09:40:10.632Z,52.90
2018-07-17T09:42:39.680Z,52.60
2018-07-17T09:45:08.618Z,59.60
2018-07-17T09:47:37.540Z,58.50
2018-07-17T09:50:06.452Z,55.00
2018-07-17T09:52:35.339Z,51.10
2018-07-17T09:55:04.285Z,50.50
2018-07-17T09:57:33.160Z,50.50
2018-07-17T10:00:02.068Z,49.00
2018-07-17T10:02:31.528Z,50.90
2018-07-17T10:05:01.035Z,50.30
2018-07-17T10:07:30.013Z,48.60
2018-07-17T10:09:59.030Z,49.30
2018-07-17T10:12:28.134Z,47.70
2018-07-17T10:14:57.244Z,47.60
2018-07-17T10:17:26.405Z,47.60
2018-07-17T10:19:55.618Z,47.60
2018-07-17T10:22:25.066Z,47.80
2018-07-17T10:24:54.441Z,46.80
2018-07-17T10:27:23.626Z,46.30
2018-07-17T10:29:52.969Z,47.60
2018-07-17T10:32:22.297Z,48.60
2018-07-17T10:34:51.594Z,46.90
2018-07-17T10:37:20.709Z,47.60
2018-07-17T10:39:49.657Z,46.80
2018-07-17T10:42:18.959Z,47.20
2018-07-17T10:44:47.878Z,46.20
2018-07-17T10:47:16.853Z,45.40
2018-07-17T10:49:45.848Z,46.50
2018-07-17T10:52:14.871Z,46.90
2018-07-17T10:54:44.036Z,45.90
2018-07-17T10:57:13.453Z,47.00
2018-07-17T10:59:42.415Z,45.30
2018-07-17T11:02:11.908Z,45.10
2018-07-17T11:04:40.816Z,46.50
2018-07-17T11:07:09.760Z,45.50
2018-07-17T11:09:38.637Z,47.30
2018-07-17T11:12:07.516Z,46.30
2018-07-17T11:14:36.425Z,45.00
2018-07-17T11:17:05.527Z,45.80
2018-07-17T11:19:34.418Z,45.60
2018-07-17T11:22:03.333Z,46.10
2018-07-17T11:24:32.404Z,47.30
2018-07-17T11:27:01.265Z,47.40
2018-07-17T11:29:30.168Z,48.90
2018-07-17T11:31:59.176Z,52.00
2018-07-17T11:34:28.218Z,52.70
2018-07-17T11:36:57.506Z,52.30
2018-07-17T11:39:26.679Z,52.70
2018-07-17T11:41:55.828Z,53.30
2018-07-17T11:44:25.124Z,52.50
2018-07-17T11:46:54.383Z,50.70
2018-07-17T11:49:23.873Z,50.80
2018-07-17T11:51:53.026Z,51.40
2018-07-17T11:54:22.443Z,51.70
2018-07-17T11:56:51.908Z,52.50
2018-07-17T11:59:21.684Z,51.60
2018-07-17T12:01:50.714Z,51.80
2018-07-17T12:04:19.842Z,50.20
2018-07-17T12:06:49.198Z,50.60
2018-07-17T12:09:18.166Z,50.80
2018-07-17T12:11:47.384Z,51.70
2018-07-17T12:14:16.436Z,51.10
2018-07-17T12:16:45.412Z,51.50
2018-07-17T12:19:14.542Z,49.60
2018-07-17T12:21:43.421Z,50.30
2018-07-17T12:24:12.524Z,50.40
2018-07-17T12:26:41.431Z,50.90
2018-07-17T12:29:10.388Z,49.80
2018-07-17T12:31:39.341Z,48.30
2018-07-17T12:34:08.313Z,50.30
2018-07-17T12:36:37.257Z,48.80
2018-07-17T12:39:08.488Z,48.30
2018-07-17T12:41:37.426Z,48.50
2018-07-17T12:44:06.402Z,50.10
2018-07-17T12:46:35.332Z,48.00
2018-07-17T12:49:04.249Z,49.20
2018-07-17T12:51:33.456Z,51.00
2018-07-17T12:54:02.620Z,49.30
2018-07-17T12:56:31.584Z,48.20
2018-07-17T12:59:00.904Z,49.30
2018-07-17T13:01:30.164Z,49.80
2018-07-17T13:03:59.124Z,48.30
2018-07-17T13:06:28.192Z,48.60
2018-07-17T13:08:57.232Z,49.40
2018-07-17T13:11:26.516Z,48.40
2018-07-17T13:13:55.823Z,48.80
2018-07-17T13:16:24.996Z,48.50
2018-07-17T13:18:54.173Z,48.00
2018-07-17T13:21:23.497Z,48.90
2018-07-17T13:23:52.949Z,48.70
2018-07-17T13:26:22.180Z,48.70
2018-07-17T13:28:51.625Z,50.50
2018-07-17T13:31:20.723Z,49.30
2018-07-17T13:33:49.996Z,50.30
2018-07-17T13:36:18.947Z,49.30
2018-07-17T13:38:48.202Z,49.80
2018-07-17T13:41:17.156Z,49.90
2018-07-17T13:43:46.100Z,50.70
2018-07-17T13:46:15.224Z,50.40
2018-07-17T13:48:44.116Z,49.40
2018-07-17T13:51:13.081Z,49.90
2018-07-17T13:53:42.173Z,49.20
2018-07-17T13:56:11.082Z,49.50
2018-07-17T13:58:40.084Z,48.90
2018-07-17T14:01:08.965Z,48.60
2018-07-17T14:03:37.945Z,48.40
2018-07-17T14:06:06.826Z,49.50
2018-07-17T14:08:35.780Z,49.10
2018-07-17T14:11:04.683Z,47.70
2018-07-17T14:13:33.581Z,48.10
2018-07-17T14:16:02.564Z,49.10
2018-07-17T14:18:31.469Z,48.10
2018-07-17T14:21:00.460Z,47.40
2018-07-17T14:23:29.365Z,49.30
2018-07-17T14:25:58.328Z,50.30
2018-07-17T14:28:27.272Z,49.10
2018-07-17T14:30:56.280Z,49.80
2018-07-17T14:33:25.216Z,50.20
2018-07-17T14:35:54.162Z,48.00
2018-07-17T14:38:23.032Z,47.50
2018-07-17T14:40:51.965Z,47.80
2018-07-17T14:43:20.939Z,48.60
2018-07-17T14:45:49.876Z,48.00
2018-07-17T14:48:18.824Z,49.10
2018-07-17T14:50:47.732Z,49.60
2018-07-17T14:53:16.628Z,50.00
2018-07-17T14:55:45.585Z,49.20
2018-07-17T14:58:14.492Z,49.40
2018-07-17T15:00:43.376Z,51.30
2018-07-17T15:03:12.304Z,50.90
2018-07-17T15:05:41.163Z,51.20
2018-07-17T15:08:10.129Z,50.90
2018-07-17T15:10:39.389Z,50.90
2018-07-17T15:13:08.340Z,51.50
2018-07-17T15:15:37.249Z,52.30
2018-07-17T15:18:06.360Z,52.10
2018-07-17T15:20:35.256Z,52.00
2018-07-17T15:23:04.283Z,53.10
2018-07-17T15:25:33.224Z,52.50
2018-07-17T15:28:02.331Z,52.90
2018-07-17T15:30:31.246Z,52.60
2018-07-17T15:33:00.254Z,53.00
2018-07-17T15:35:29.132Z,52.50
2018-07-17T15:37:58.017Z,51.80
2018-07-17T15:40:26.921Z,52.80
2018-07-17T15:42:55.820Z,51.30
2018-07-17T15:45:24.800Z,52.10
2018-07-17T15:47:53.688Z,53.40
2018-07-17T15:50:22.573Z,54.10
2018-07-17T15:52:51.453Z,54.10
2018-07-17T15:55:20.476Z,54.30
2018-07-17T15:57:49.332Z,54.60
2018-07-17T16:00:18.311Z,53.80
2018-07-17T16:02:47.220Z,53.80
2018-07-17T16:05:16.146Z,53.70
2018-07-17T16:07:45.102Z,53.40
2018-07-17T16:10:14.040Z,53.80
2018-07-17T16:12:42.922Z,52.90
2018-07-17T16:15:11.881Z,53.80
2018-07-17T16:17:40.741Z,53.10
2018-07-17T16:20:09.746Z,54.60
2018-07-17T16:22:38.648Z,55.30
2018-07-17T16:25:07.784Z,55.70
2018-07-17T16:27:36.669Z,54.50
2018-07-17T16:30:06.844Z,55.60
2018-07-17T16:32:35.725Z,55.50
2018-07-17T16:35:04.727Z,55.80
2018-07-17T16:37:33.652Z,54.60
2018-07-17T16:40:02.581Z,54.10
2018-07-17T16:42:31.499Z,55.20
2018-07-17T16:45:00.465Z,54.80
2018-07-17T16:47:29.352Z,53.10
2018-07-17T16:49:58.333Z,53.40
2018-07-17T16:52:27.244Z,53.80
2018-07-17T16:54:56.129Z,52.90
2018-07-17T16:57:25.056Z,54.10
2018-07-17T16:59:53.980Z,54.90
2018-07-17T17:02:22.954Z,55.90
2018-07-17T17:04:51.848Z,55.20
2018-07-17T17:07:20.826Z,55.60
2018-07-17T17:09:49.760Z,54.80
2018-07-17T17:12:18.723Z,54.70
2018-07-17T17:14:47.711Z,55.00
2018-07-17T17:17:16.692Z,55.60
2018-07-17T17:19:45.592Z,55.50
2018-07-17T17:22:14.819Z,55.40
2018-07-17T17:24:44.030Z,55.50
2018-07-17T17:27:12.935Z,54.60
2018-07-17T17:29:41.860Z,54.80
2018-07-17T17:32:10.835Z,55.80
2018-07-17T17:34:39.734Z,55.10
2018-07-17T17:37:08.689Z,55.30
2018-07-17T17:39:37.658Z,55.60
2018-07-17T17:42:06.693Z,56.30
2018-07-17T17:44:35.608Z,56.20
2018-07-17T17:47:04.560Z,56.10
2018-07-17T17:49:33.520Z,56.10
2018-07-17T17:52:02.468Z,55.80
2018-07-17T17:54:31.580Z,55.70
2018-07-17T17:57:00.509Z,56.90
2018-07-17T17:59:29.464Z,57.20
2018-07-17T18:01:58.346Z,57.50
2018-07-17T18:04:27.277Z,58.10
2018-07-17T18:06:56.253Z,59.40
2018-07-17T18:09:25.232Z,62.50
2018-07-17T18:11:54.137Z,63.90
2018-07-17T18:14:23.304Z,64.70
2018-07-17T18:16:52.205Z,65.00
2018-07-17T18:19:21.181Z,66.20
2018-07-17T18:21:50.085Z,67.30
2018-07-17T18:24:19.020Z,68.60
2018-07-17T18:26:47.976Z,68.00
2018-07-17T18:29:16.913Z,67.70
2018-07-17T18:31:45.825Z,67.60
2018-07-17T18:34:14.792Z,71.40
2018-07-17T18:36:43.704Z,73.60
2018-07-17T18:39:12.600Z,76.20
2018-07-17T18:41:41.666Z,76.50
2018-07-17T18:44:10.516Z,74.80
2018-07-17T18:46:39.433Z,76.30
2018-07-17T18:49:08.316Z,78.50
2018-07-17T18:51:37.285Z,79.20
2018-07-17T18:54:06.196Z,79.20
2018-07-17T18:56:35.172Z,79.30
2018-07-17T18:59:04.105Z,77.50
2018-07-17T19:01:33.076Z,74.60
2018-07-17T19:04:02.030Z,79.00
2018-07-17T19:06:31.147Z,78.70
2018-07-17T19:09:00.021Z,78.40
2018-07-17T19:11:28.993Z,81.10
2018-07-17T19:13:58.001Z,82.60
2018-07-17T19:16:27.026Z,80.50
2018-07-17T19:18:56.480Z,78.00
2018-07-17T19:21:25.547Z,77.20
2018-07-17T19:23:54.568Z,78.50
2018-07-17T19:26:23.554Z,77.00
2018-07-17T19:28:52.508Z,75.90
2018-07-17T19:31:22.385Z,74.70
2018-07-17T19:33:51.335Z,75.30
2018-07-17T19:36:20.261Z,74.10
2018-07-17T19:38:49.192Z,74.70
2018-07-17T19:41:18.202Z,74.50
2018-07-17T19:43:47.140Z,74.00
2018-07-17T19:46:16.033Z,72.50
2018-07-17T19:48:45.099Z,72.10
2018-07-17T19:51:14.013Z,71.90
2018-07-17T19:53:42.913Z,70.10
2018-07-17T19:56:11.806Z,72.80
2018-07-17T19:58:40.716Z,70.00
2018-07-17T20:01:09.602Z,71.70
2018-07-17T20:03:38.564Z,74.70
2018-07-17T20:06:07.490Z,73.90
2018-07-17T20:08:36.553Z,73.00
2018-07-17T20:11:05.572Z,69.80
2018-07-17T20:13:34.492Z,70.00
2018-07-17T20:16:03.397Z,70.60
2018-07-17T20:18:32.450Z,69.90
2018-07-17T20:21:01.529Z,67.70
2018-07-17T20:23:30.464Z,65.40
2018-07-17T20:25:59.377Z,68.10
2018-07-17T20:28:28.480Z,68.30
2018-07-17T20:30:57.405Z,67.00
2018-07-17T20:33:26.395Z,66.00
2018-07-17T20:35:55.336Z,67.00
2018-07-17T20:38:24.378Z,66.80
2018-07-17T20:40:53.448Z,70.00
2018-07-17T20:43:22.321Z,68.90
2018-07-17T20:45:51.603Z,70.10
2018-07-17T20:48:20.590Z,69.90
2018-07-17T20:50:49.543Z,69.30
2018-07-17T20:53:18.450Z,70.60
2018-07-17T20:55:47.368Z,72.10
2018-07-17T20:58:16.249Z,71.70
2018-07-17T21:00:45.163Z,70.70
2018-07-17T21:03:14.028Z,69.60
2018-07-17T21:05:42.960Z,71.00
2018-07-17T21:08:11.886Z,71.30
2018-07-17T21:10:40.804Z,70.60
2018-07-17T21:13:09.760Z,69.70
2018-07-17T21:15:38.659Z,73.10
2018-07-17T21:18:07.560Z,75.40
2018-07-17T21:20:36.528Z,75.20
2018-07-17T21:23:05.501Z,74.10
2018-07-17T21:25:34.440Z,72.90
2018-07-17T21:28:03.360Z,72.30
2018-07-17T21:30:32.305Z,74.10
2018-07-17T21:33:01.372Z,73.60
2018-07-17T21:35:30.295Z,73.30
2018-07-17T21:37:59.311Z,73.70
2018-07-17T21:40:28.308Z,72.70
2018-07-17T21:42:57.561Z,73.10
2018-07-17T21:45:26.609Z,74.70
2018-07-17T21:47:55.588Z,75.80
2018-07-17T21:50:24.584Z,75.80
2018-07-17T21:52:53.589Z,74.90
2018-07-17T21:55:22.485Z,75.30
2018-07-17T21:57:51.445Z,75.80
2018-07-17T22:00:20.412Z,77.80
2018-07-17T22:02:49.373Z,81.30
2018-07-17T22:05:18.306Z,84.90
2018-07-17T22:07:47.261Z,83.90
2018-07-17T22:10:16.139Z,83.20
2018-07-17T22:12:45.060Z,79.90
2018-07-17T22:15:14.130Z,85.20
2018-07-17T22:17:43.022Z,86.10
2018-07-17T22:20:11.920Z,85.60
2018-07-17T22:22:40.860Z,83.20
2018-07-17T22:25:09.732Z,78.90
2018-07-17T22:27:38.676Z,83.20
2018-07-17T22:30:07.596Z,82.90
2018-07-17T22:32:36.512Z,85.20
2018-07-17T22:35:05.449Z,90.60
2018-07-17T22:37:34.354Z,84.70
2018-07-17T22:40:03.301Z,80.30
2018-07-17T22:42:32.204Z,84.90
2018-07-17T22:45:01.111Z,90.10
2018-07-17T22:47:30.008Z,84.30
2018-07-17T22:49:58.931Z,82.90
2018-07-17T22:52:27.879Z,85.60
2018-07-17T22:54:56.840Z,86.70
2018-07-17T22:57:25.769Z,83.80
2018-07-17T22:59:54.744Z,81.30
2018-07-17T23:02:23.680Z,80.80
2018-07-17T23:04:52.584Z,79.70
2018-07-17T23:07:21.528Z,79.30
2018-07-17T23:09:50.458Z,82.20
2018-07-17T23:12:19.392Z,81.10
2018-07-17T23:14:48.300Z,83.80
2018-07-17T23:17:17.212Z,84.80
2018-07-17T23:19:46.167Z,87.70
2018-07-17T23:22:18.132Z,83.30
2018-07-17T23:24:47.101Z,86.50
2018-07-17T23:27:16.020Z,85.00
2018-07-17T23:29:44.944Z,84.30
2018-07-17T23:32:13.828Z,87.80
2018-07-17T23:34:42.740Z,88.00
2018-07-17T23:37:11.612Z,93.10
2018-07-17T23:39:40.560Z,90.10
2018-07-17T23:42:09.456Z,90.00
2018-07-17T23:44:38.386Z,86.50
2018-07-17T23:47:07.280Z,88.50
2018-07-17T23:49:39.141Z,86.90
2018-07-17T23:52:08.689Z,85.40
2018-07-17T23:54:37.639Z,84.10
2018-07-17T23:57:06.625Z,85.20
2018-07-17T23:59:35.556Z,84.30
